createdAt,value
2019-05-17T00:01:57.536Z,7.70
2019-05-17T00:04:37.892Z,6.70
2019-05-17T00:07:18.559Z,7.53
2019-05-17T00:09:58.998Z,9.20
2019-05-17T00:12:39.606Z,8.83
2019-05-17T00:15:20.588Z,8.10
2019-05-17T00:18:01.199Z,8.17
2019-05-17T00:20:42.087Z,8.50
2019-05-17T00:23:22.762Z,10.70
2019-05-17T00:26:03.150Z,9.30
2019-05-17T00:28:43.698Z,8.53
2019-05-17T00:31:26.159Z,9.27
2019-05-17T00:34:07.398Z,7.70
2019-05-17T00:36:48.622Z,9.57
2019-05-17T00:39:29.353Z,8.63
2019-05-17T00:42:10.188Z,8.23
2019-05-17T00:44:50.951Z,7.93
2019-05-17T00:47:31.490Z,9.73
2019-05-17T00:50:11.976Z,8.67
2019-05-17T00:52:59.671Z,8.07
2019-05-17T00:55:47.376Z,8.73
2019-05-17T00:58:37.063Z,10.87
2019-05-17T01:01:26.897Z,8.97
2019-05-17T01:04:14.036Z,9.30
2019-05-17T01:06:56.309Z,9.20
2019-05-17T01:09:36.908Z,9.90
2019-05-17T01:12:17.788Z,8.87
2019-05-17T01:14:58.415Z,8.23
2019-05-17T01:17:38.828Z,8.60
2019-05-17T01:20:19.702Z,8.30
2019-05-17T01:23:00.472Z,9.47
2019-05-17T01:25:41.488Z,8.40
2019-05-17T01:28:22.276Z,10.27
2019-05-17T01:31:03.053Z,8.20
2019-05-17T01:33:43.867Z,9.07
2019-05-17T01:36:26.324Z,8.47
2019-05-17T01:39:17.077Z,8.80
2019-05-17T01:41:50.126Z,10.43
2019-05-17T01:44:30.936Z,7.73
2019-05-17T01:47:11.405Z,9.43
2019-05-17T01:49:52.037Z,8.90
2019-05-17T01:52:32.331Z,10.03
2019-05-17T01:55:20.106Z,8.43
2019-05-17T01:58:07.793Z,8.40
2019-05-17T02:00:57.358Z,8.57
2019-05-17T02:03:46.911Z,10.33
2019-05-17T02:06:36.670Z,9.93
2019-05-17T02:09:36.845Z,11.47
2019-05-17T02:12:13.303Z,10.73
2019-05-17T02:15:01.066Z,10.07
2019-05-17T02:17:48.803Z,11.87
2019-05-17T02:20:37.287Z,9.87
2019-05-17T02:23:27.038Z,11.03
2019-05-17T02:26:17.369Z,10.67
2019-05-17T02:29:04.764Z,9.40
2019-05-17T02:31:52.696Z,14.77
2019-05-17T02:34:43.091Z,9.23
2019-05-17T02:37:33.415Z,10.13
2019-05-17T02:40:22.696Z,8.97
2019-05-17T02:43:13.038Z,11.13
2019-05-17T02:46:03.220Z,9.50
2019-05-17T02:48:49.204Z,11.63
2019-05-17T02:51:36.976Z,11.83
2019-05-17T02:54:24.732Z,10.93
2019-05-17T02:57:14.234Z,10.93
2019-05-17T03:00:04.317Z,9.53
2019-05-17T03:02:53.585Z,10.77
2019-05-17T03:05:34.226Z,12.33
2019-05-17T03:08:14.914Z,10.03
2019-05-17T03:10:55.951Z,11.77
2019-05-17T03:13:36.829Z,10.87
2019-05-17T03:16:17.569Z,11.87
2019-05-17T03:18:58.599Z,12.40
2019-05-17T03:21:39.261Z,12.97
2019-05-17T03:24:22.605Z,11.70
2019-05-17T03:27:03.146Z,12.57
2019-05-17T03:29:44.151Z,10.37
2019-05-17T03:32:26.772Z,10.87
2019-05-17T03:35:07.551Z,13.13
2019-05-17T03:37:48.330Z,11.27
2019-05-17T03:40:58.359Z,12.40
2019-05-17T03:43:13.795Z,13.23
2019-05-17T03:45:54.267Z,12.13
2019-05-17T03:48:34.933Z,13.00
2019-05-17T03:51:15.351Z,10.97
2019-05-17T03:53:56.067Z,11.57
2019-05-17T03:56:37.073Z,11.00
2019-05-17T03:59:17.509Z,12.30
2019-05-17T04:01:58.247Z,10.43
2019-05-17T04:04:42.686Z,11.87
2019-05-17T04:07:23.653Z,12.77
2019-05-17T04:10:05.061Z,10.77
2019-05-17T04:12:45.638Z,11.37
2019-05-17T04:15:26.563Z,10.00
2019-05-17T04:18:07.031Z,11.40
2019-05-17T04:20:47.848Z,9.93
2019-05-17T04:23:28.605Z,13.63
2019-05-17T04:26:09.318Z,12.53
2019-05-17T04:28:52.980Z,9.13
2019-05-17T04:31:34.975Z,12.77
2019-05-17T04:34:15.447Z,11.07
2019-05-17T04:36:55.873Z,12.73
2019-05-17T04:39:36.407Z,10.57
2019-05-17T04:42:16.806Z,9.40
2019-05-17T04:44:57.317Z,10.90
2019-05-17T04:47:38.100Z,11.57
2019-05-17T04:50:18.668Z,12.63
2019-05-17T04:53:02.259Z,10.80
2019-05-17T04:55:43.077Z,10.83
2019-05-17T04:58:24.399Z,11.53
2019-05-17T05:01:05.197Z,8.87
2019-05-17T05:03:45.967Z,10.13
2019-05-17T05:06:27.207Z,9.30
2019-05-17T05:09:07.760Z,8.13
2019-05-17T05:11:59.471Z,8.57
2019-05-17T05:14:32.881Z,8.03
2019-05-17T05:17:13.930Z,10.00
2019-05-17T05:19:54.663Z,8.77
2019-05-17T05:22:35.241Z,7.17
2019-05-17T05:25:16.016Z,7.97
2019-05-17T05:27:56.826Z,8.60
2019-05-17T05:30:41.950Z,7.77
2019-05-17T05:33:22.326Z,7.57
2019-05-17T05:36:02.802Z,10.53
2019-05-17T05:38:43.726Z,7.67
2019-05-17T05:41:24.443Z,7.03
2019-05-17T05:44:05.098Z,8.83
2019-05-17T05:46:45.551Z,8.33
2019-05-17T05:49:26.181Z,6.77
2019-05-17T05:52:06.942Z,9.60
2019-05-17T05:54:47.984Z,7.93
2019-05-17T05:57:28.848Z,7.83
2019-05-17T06:00:12.475Z,8.73
2019-05-17T06:02:52.763Z,8.67
2019-05-17T06:05:33.284Z,7.40
2019-05-17T06:08:13.827Z,8.83
2019-05-17T06:10:54.408Z,7.50
2019-05-17T06:13:35.355Z,10.17
2019-05-17T06:16:16.173Z,6.53
2019-05-17T06:18:56.967Z,8.63
2019-05-17T06:21:37.797Z,9.30
2019-05-17T06:24:18.796Z,6.90
2019-05-17T06:26:59.135Z,7.20
2019-05-17T06:29:41.526Z,6.63
2019-05-17T06:32:22.761Z,6.97
2019-05-17T06:35:03.478Z,6.17
2019-05-17T06:37:44.418Z,5.03
2019-05-17T06:40:25.173Z,6.23
2019-05-17T06:42:53.487Z,6.27
2019-05-17T06:45:41.884Z,7.30
2019-05-17T06:48:31.881Z,4.93
2019-05-17T06:51:22.069Z,6.43
2019-05-17T06:54:11.845Z,5.47
2019-05-17T06:56:59.130Z,5.37
2019-05-17T06:59:46.893Z,5.97
2019-05-17T07:02:36.163Z,6.30
2019-05-17T07:05:43.259Z,5.30
2019-05-17T07:08:23.738Z,5.40
2019-05-17T07:11:04.548Z,6.20
2019-05-17T07:13:45.124Z,6.00
2019-05-17T07:16:25.663Z,4.77
2019-05-17T07:19:06.113Z,6.60
2019-05-17T07:21:46.770Z,5.20
2019-05-17T07:24:30.024Z,6.30
2019-05-17T07:27:10.991Z,6.00
2019-05-17T07:29:51.323Z,6.57
2019-05-17T07:32:32.248Z,6.27
2019-05-17T07:35:13.052Z,10.33
2019-05-17T07:37:53.779Z,6.47
2019-05-17T07:40:34.396Z,8.10
2019-05-17T07:43:15.093Z,7.07
2019-05-17T07:45:55.616Z,6.87
2019-05-17T07:48:36.468Z,7.72
2019-05-17T07:51:19.518Z,7.87
2019-05-17T07:54:00.112Z,7.03
2019-05-17T07:56:40.582Z,6.63
2019-05-17T07:59:21.516Z,7.60
2019-05-17T08:02:02.417Z,6.20
2019-05-17T08:04:43.222Z,6.57
2019-05-17T08:07:23.916Z,5.90
2019-05-17T08:10:04.506Z,7.77
2019-05-17T08:12:45.166Z,6.23
2019-05-17T08:15:25.711Z,5.23
2019-05-17T08:18:06.359Z,8.73
2019-05-17T08:20:47.039Z,6.93
2019-05-17T08:23:30.202Z,5.77
2019-05-17T08:26:10.650Z,5.50
2019-05-17T08:28:51.566Z,4.97
2019-05-17T08:31:32.163Z,6.00
2019-05-17T08:34:13.076Z,5.30
2019-05-17T08:36:53.291Z,5.60
2019-05-17T08:39:33.861Z,5.83
2019-05-17T08:42:14.308Z,6.20
2019-05-17T08:44:54.632Z,5.67
2019-05-17T08:47:35.532Z,6.57
2019-05-17T08:50:16.014Z,5.83
2019-05-17T08:52:56.619Z,6.93
2019-05-17T08:55:37.192Z,5.37
2019-05-17T08:58:21.287Z,5.63
2019-05-17T09:01:00.665Z,5.13
2019-05-17T09:03:41.477Z,7.23
2019-05-17T09:06:22.328Z,4.67
2019-05-17T09:09:04.669Z,4.07
2019-05-17T09:11:45.214Z,3.77
2019-05-17T09:14:25.852Z,3.27
2019-05-17T09:17:06.757Z,4.00
2019-05-17T09:19:47.281Z,2.70
2019-05-17T09:22:30.412Z,3.27
2019-05-17T09:25:16.100Z,2.20
2019-05-17T09:27:53.612Z,3.13
2019-05-17T09:30:25.342Z,1.73
2019-05-17T09:33:11.622Z,1.60
2019-05-17T09:36:01.171Z,1.50
2019-05-17T09:38:50.294Z,1.80
2019-05-17T09:41:39.774Z,1.30
2019-05-17T09:44:29.744Z,1.73
2019-05-17T09:49:45.761Z,2.33
2019-05-17T09:52:33.457Z,2.03
2019-05-17T09:55:21.212Z,1.30
2019-05-17T09:58:09.854Z,2.93
2019-05-17T10:01:01.070Z,2.17
2019-05-17T10:03:50.372Z,2.00
2019-05-17T10:06:39.941Z,1.97
2019-05-17T10:12:24.951Z,1.43
2019-05-17T10:15:12.682Z,1.73
2019-05-17T10:18:00.691Z,1.40
2019-05-17T10:20:50.663Z,1.40
2019-05-17T10:23:40.717Z,1.30
2019-05-17T10:26:21.392Z,3.43
2019-05-17T10:29:02.294Z,1.50
2019-05-17T10:31:42.987Z,4.77
2019-05-17T10:34:24.027Z,3.23
2019-05-17T10:37:05.026Z,1.63
2019-05-17T10:39:45.613Z,3.20
2019-05-17T10:42:26.381Z,1.70
2019-05-17T10:45:07.023Z,1.93
2019-05-17T10:47:49.870Z,1.40
2019-05-17T10:50:30.081Z,2.07
2019-05-17T10:53:11.102Z,2.07
2019-05-17T10:55:51.934Z,3.23
2019-05-17T10:58:30.706Z,5.10
2019-05-17T11:01:20.081Z,3.50
2019-05-17T11:04:10.311Z,3.67
2019-05-17T11:06:59.478Z,5.57
2019-05-17T11:09:46.757Z,5.10
2019-05-17T11:12:34.492Z,4.73
2019-05-17T11:15:22.207Z,5.77
2019-05-17T11:18:09.931Z,5.67
2019-05-17T11:20:57.653Z,4.60
2019-05-17T11:23:45.421Z,6.10
2019-05-17T11:26:24.087Z,6.37
2019-05-17T11:29:11.807Z,8.63
2019-05-17T11:31:59.647Z,6.90
2019-05-17T11:34:47.346Z,8.67
2019-05-17T11:37:35.162Z,8.60
2019-05-17T11:40:22.917Z,9.67
2019-05-17T11:43:10.721Z,11.00
2019-05-17T11:45:58.458Z,9.70
2019-05-17T11:51:39.541Z,11.17
2019-05-17T11:54:27.253Z,12.20
2019-05-17T11:57:14.971Z,17.73
2019-05-17T12:03:11.892Z,10.13
2019-05-17T12:05:59.627Z,10.43
2019-05-17T12:08:47.336Z,9.33
2019-05-17T12:11:35.033Z,9.63
2019-05-17T12:14:22.753Z,8.60
2019-05-17T12:17:10.483Z,10.25
2019-05-17T12:19:58.273Z,10.13
2019-05-17T12:22:46.086Z,10.03
2019-05-17T12:25:26.636Z,10.13
2019-05-17T12:28:07.452Z,9.35
2019-05-17T12:30:48.442Z,11.57
2019-05-17T12:33:29.252Z,11.20
2019-05-17T12:36:10.256Z,11.00
2019-05-17T12:38:51.167Z,11.20
2019-05-17T12:41:31.882Z,12.20
2019-05-17T12:44:12.753Z,11.37
2019-05-17T12:46:53.547Z,11.10
2019-05-17T12:49:34.474Z,11.13
2019-05-17T12:52:15.092Z,11.20
2019-05-17T12:54:55.587Z,13.63
2019-05-17T12:57:36.407Z,13.63
2019-05-17T13:00:17.197Z,11.97
2019-05-17T13:02:58.257Z,13.83
2019-05-17T13:05:39.101Z,15.07
2019-05-17T13:08:20.268Z,13.77
2019-05-17T13:11:01.123Z,13.73
2019-05-17T13:13:42.121Z,11.50
2019-05-17T13:16:22.942Z,11.53
2019-05-17T13:19:03.549Z,13.05
2019-05-17T13:21:44.469Z,13.70
2019-05-17T13:24:25.236Z,12.10
2019-05-17T13:27:06.333Z,11.88
2019-05-17T13:29:47.244Z,9.45
2019-05-17T13:32:27.936Z,8.45
2019-05-17T13:35:08.533Z,9.50
2019-05-17T13:37:49.427Z,9.28
2019-05-17T13:40:38.649Z,10.25
2019-05-17T13:43:12.447Z,9.55
2019-05-17T13:45:53.406Z,11.60
2019-05-17T13:48:33.880Z,10.75
2019-05-17T13:51:14.537Z,9.23
2019-05-17T13:53:55.093Z,9.78
2019-05-17T13:56:35.956Z,9.88
2019-05-17T13:59:16.453Z,9.30
2019-05-17T14:01:57.517Z,9.45
2019-05-17T14:04:38.518Z,9.03
2019-05-17T14:07:19.322Z,8.03
2019-05-17T14:10:00.165Z,8.95
2019-05-17T14:12:40.826Z,9.03
2019-05-17T14:15:21.322Z,10.20
2019-05-17T14:18:02.036Z,11.73
2019-05-17T14:20:42.970Z,10.20
2019-05-17T14:23:23.662Z,10.47
2019-05-17T14:26:04.622Z,9.13
2019-05-17T14:28:45.326Z,11.27
2019-05-17T14:31:26.127Z,9.70
2019-05-17T14:34:06.766Z,9.53
2019-05-17T14:36:47.507Z,10.93
2019-05-17T14:39:28.141Z,12.43
2019-05-17T14:42:09.049Z,12.37
2019-05-17T14:44:49.610Z,10.90
2019-05-17T14:47:30.293Z,11.67
2019-05-17T14:50:10.775Z,13.27
2019-05-17T14:52:51.856Z,10.63
2019-05-17T14:55:32.857Z,13.00
2019-05-17T14:58:13.655Z,10.67
2019-05-17T15:00:54.552Z,11.40
2019-05-17T15:03:35.346Z,11.70
2019-05-17T15:06:15.994Z,10.90
2019-05-17T15:08:56.982Z,12.80
2019-05-17T15:11:38.036Z,13.37
2019-05-17T15:14:18.944Z,8.50
2019-05-17T15:16:59.517Z,9.70
2019-05-17T15:19:40.439Z,8.50
2019-05-17T15:22:21.237Z,8.80
2019-05-17T15:25:02.527Z,11.80
2019-05-17T15:27:43.576Z,8.97
2019-05-17T15:30:24.050Z,9.90
2019-05-17T15:33:04.573Z,8.40
2019-05-17T15:35:44.971Z,6.90
2019-05-17T15:38:25.677Z,6.77
2019-05-17T15:41:06.486Z,7.37
2019-05-17T15:43:47.237Z,6.30
2019-05-17T15:46:27.801Z,6.17
2019-05-17T15:49:08.697Z,7.27
2019-05-17T15:51:49.613Z,6.43
2019-05-17T15:54:30.476Z,6.20
2019-05-17T15:57:10.791Z,6.03
2019-05-17T15:59:51.530Z,6.13
2019-05-17T16:02:31.901Z,6.43
2019-05-17T16:05:12.638Z,6.90
2019-05-17T16:07:53.351Z,6.73
2019-05-17T16:10:34.109Z,6.23
2019-05-17T16:13:14.907Z,6.10
2019-05-17T16:15:55.621Z,7.10
2019-05-17T16:18:36.412Z,6.33
2019-05-17T16:21:16.892Z,7.23
2019-05-17T16:23:57.524Z,8.27
2019-05-17T16:26:38.161Z,5.50
2019-05-17T16:29:19.036Z,6.57
2019-05-17T16:31:59.505Z,5.33
2019-05-17T16:34:40.393Z,5.93
2019-05-17T16:37:20.830Z,6.67
2019-05-17T16:40:01.379Z,6.03
2019-05-17T16:42:41.910Z,6.00
2019-05-17T16:45:22.567Z,5.63
2019-05-17T16:48:03.326Z,5.63
2019-05-17T16:50:43.952Z,5.70
2019-05-17T16:53:24.697Z,5.73
2019-05-17T16:56:05.668Z,5.47
2019-05-17T16:58:46.133Z,5.17
2019-05-17T17:01:26.762Z,5.70
2019-05-17T17:04:07.260Z,4.50
2019-05-17T17:06:47.761Z,4.67
2019-05-17T17:09:28.593Z,4.17
2019-05-17T17:12:09.547Z,4.80
2019-05-17T17:14:50.142Z,6.63
2019-05-17T17:17:30.740Z,4.27
2019-05-17T17:20:11.112Z,5.83
2019-05-17T17:22:52.159Z,3.43
2019-05-17T17:25:32.903Z,4.47
2019-05-17T17:28:13.412Z,3.97
2019-05-17T17:30:53.963Z,3.70
2019-05-17T17:33:34.467Z,4.63
2019-05-17T17:36:15.027Z,8.43
2019-05-17T17:38:55.956Z,6.03
2019-05-17T17:41:36.831Z,6.47
2019-05-17T17:44:17.653Z,8.70
2019-05-17T17:46:58.323Z,8.03
2019-05-17T17:49:38.996Z,6.83
2019-05-17T17:52:19.576Z,6.57
2019-05-17T17:55:00.370Z,7.23
2019-05-17T17:57:41.658Z,8.40
2019-05-17T18:00:22.704Z,7.37
2019-05-17T18:03:03.102Z,7.23
2019-05-17T18:05:44.053Z,8.30
2019-05-17T18:08:24.897Z,6.03
2019-05-17T18:11:05.446Z,6.77
2019-05-17T18:13:46.238Z,5.70
2019-05-17T18:16:27.030Z,7.50
2019-05-17T18:19:07.895Z,7.30
2019-05-17T18:21:48.693Z,5.80
2019-05-17T18:24:29.539Z,7.50
2019-05-17T18:27:10.049Z,5.70
2019-05-17T18:29:50.768Z,7.83
2019-05-17T18:32:31.390Z,7.43
2019-05-17T18:35:12.411Z,8.03
2019-05-17T18:37:53.012Z,6.27
2019-05-17T18:40:33.313Z,7.60
2019-05-17T18:43:14.034Z,6.70
2019-05-17T18:45:54.250Z,7.27
2019-05-17T18:48:35.094Z,7.40
2019-05-17T18:51:15.487Z,8.87
2019-05-17T18:53:56.498Z,8.13
2019-05-17T18:56:36.739Z,8.07
2019-05-17T18:59:17.594Z,6.30
2019-05-17T19:01:58.095Z,6.30
2019-05-17T19:04:38.646Z,8.83
2019-05-17T19:07:19.128Z,8.97
2019-05-17T19:10:00.086Z,7.57
2019-05-17T19:12:40.803Z,5.97
2019-05-17T19:15:21.563Z,8.40
2019-05-17T19:18:01.940Z,7.63
2019-05-17T19:20:42.718Z,7.83
2019-05-17T19:23:25.918Z,6.40
2019-05-17T19:26:06.323Z,7.73
2019-05-17T19:28:46.732Z,5.80
2019-05-17T19:31:27.408Z,10.53
2019-05-17T19:34:08.282Z,7.80
2019-05-17T19:36:49.006Z,7.43
2019-05-17T19:39:29.723Z,7.13
2019-05-17T19:42:10.871Z,8.80
2019-05-17T19:44:59.262Z,7.40
2019-05-17T19:47:34.450Z,5.00
2019-05-17T19:50:15.268Z,7.03
2019-05-17T19:52:56.101Z,6.53
2019-05-17T19:55:36.873Z,6.23
2019-05-17T19:58:17.732Z,7.63
2019-05-17T20:00:59.374Z,6.97
2019-05-17T20:03:39.819Z,8.13
2019-05-17T20:06:20.414Z,10.07
2019-05-17T20:09:01.092Z,8.97
2019-05-17T20:11:41.843Z,10.87
2019-05-17T20:14:22.641Z,9.10
2019-05-17T20:17:03.544Z,9.87
2019-05-17T20:19:44.227Z,11.50
2019-05-17T20:22:25.051Z,8.87
2019-05-17T20:25:05.510Z,9.77
2019-05-17T20:27:46.666Z,7.13
2019-05-17T20:30:26.957Z,8.43
2019-05-17T20:33:07.836Z,9.70
2019-05-17T20:35:48.648Z,17.00
2019-05-17T20:38:29.319Z,8.60
2019-05-17T20:41:10.146Z,11.20
2019-05-17T20:43:50.652Z,8.27
2019-05-17T20:46:31.219Z,7.30
2019-05-17T20:49:11.629Z,9.00
2019-05-17T20:51:52.683Z,8.97
2019-05-17T20:54:33.186Z,10.20
2019-05-17T20:57:13.599Z,16.67
2019-05-17T20:59:53.986Z,10.13
2019-05-17T21:02:34.648Z,10.30
2019-05-17T21:05:15.213Z,8.97
2019-05-17T21:07:55.819Z,7.87
2019-05-17T21:10:36.262Z,8.93
2019-05-17T21:13:16.915Z,8.97
2019-05-17T21:15:57.728Z,10.37
2019-05-17T21:18:38.445Z,11.70
2019-05-17T21:21:19.397Z,12.50
2019-05-17T21:24:00.201Z,11.70
2019-05-17T21:26:40.949Z,9.33
2019-05-17T21:29:21.601Z,9.93
2019-05-17T21:32:01.983Z,10.40
2019-05-17T21:34:42.650Z,13.77
2019-05-17T21:37:23.394Z,11.00
2019-05-17T21:40:04.357Z,8.57
2019-05-17T21:42:45.164Z,10.87
2019-05-17T21:45:25.892Z,11.00
2019-05-17T21:48:06.818Z,9.87
2019-05-17T21:50:47.648Z,10.87
2019-05-17T21:53:28.162Z,11.50
2019-05-17T21:56:08.887Z,11.80
2019-05-17T21:58:49.430Z,12.73
2019-05-17T22:01:29.944Z,11.53
2019-05-17T22:04:10.812Z,10.47
2019-05-17T22:06:51.839Z,9.87
2019-05-17T22:09:32.804Z,8.00
2019-05-17T22:12:14.276Z,9.37
2019-05-17T22:14:55.502Z,11.27
2019-05-17T22:17:36.136Z,14.50
2019-05-17T22:20:17.151Z,11.30
2019-05-17T22:22:57.933Z,12.20
2019-05-17T22:25:38.347Z,12.97
2019-05-17T22:28:19.018Z,12.50
2019-05-17T22:30:59.942Z,11.70
2019-05-17T22:33:41.009Z,11.50
2019-05-17T22:36:21.862Z,12.33
2019-05-17T22:39:03.052Z,10.37
2019-05-17T22:41:43.701Z,10.77
2019-05-17T22:44:24.358Z,9.60
2019-05-17T22:47:05.034Z,13.97
2019-05-17T22:49:45.952Z,10.97
2019-05-17T22:52:27.019Z,10.43
2019-05-17T22:55:07.943Z,8.93
2019-05-17T22:57:48.650Z,10.80
2019-05-17T23:00:29.568Z,11.00
2019-05-17T23:03:10.431Z,10.93
2019-05-17T23:05:50.991Z,12.33
2019-05-17T23:08:31.388Z,10.53
2019-05-17T23:11:12.441Z,11.77
2019-05-17T23:13:53.276Z,11.87
2019-05-17T23:16:34.015Z,11.73
2019-05-17T23:19:14.610Z,12.57
2019-05-17T23:21:55.485Z,11.80
2019-05-17T23:24:36.418Z,10.23
2019-05-17T23:27:17.251Z,14.53
2019-05-17T23:29:58.066Z,10.53
2019-05-17T23:32:40.845Z,12.47
2019-05-17T23:35:21.727Z,14.87
2019-05-17T23:38:02.558Z,14.60
2019-05-17T23:40:43.367Z,12.27
2019-05-17T23:43:24.291Z,12.97
2019-05-17T23:46:05.176Z,13.53
2019-05-17T23:48:45.940Z,15.67
2019-05-17T23:51:26.677Z,14.03
2019-05-17T23:54:07.798Z,15.23
2019-05-17T23:56:48.687Z,11.77
2019-05-17T23:59:29.016Z,15.33
